Flight Track Log - Related Links

Times and Time Zones

All times are in EDT time to prevent confusion due to time zone crossing. See the SKW5411 flight status page for this flight to view local times or setup timezone preferences in your user account.

Time Position Orientation Groundspeed Altitude Reporting Facility
EDT Latitude Longitude Course Direction KTS MPH feet Rate Location/Type
Tue 07:23:45 PM 33.9469 -118.4517 287° West 139 160 1,700  Level Los Angeles Center
Tue 07:24:47 PM 33.9594 -118.5047 286° West 163 188 3,300 1,561 Climbing Los Angeles Center
Tue 07:25:48 PM 33.9750 -118.5636 288° West 183 211 4,900 1,512 Climbing Los Angeles Center
Tue 07:26:50 PM 33.9892 -118.6153 288° West 190 219 6,400 1,113 Climbing Los Angeles Center
Tue 07:27:00 PM 34.0317 -118.7678 285° West  Level FlightAware Approximate
Tue 07:27:52 PM 34.0142 -118.6964 290° West 217 250 7,200  Level Los Angeles Center
Tue 07:28:00 PM 34.0542 -118.8605 296° West  Level FlightAware Approximate
Tue 07:28:54 PM 34.0336 -118.7692 288° West 226 260 8,800  Level Los Angeles Center
Tue 07:29:00 PM 34.0872 -118.9486 287° West  Level FlightAware Approximate
Tue 07:29:55 PM 34.0572 -118.8439 291° West 227 261 9,000  Level Los Angeles Center
Tue 07:30:57 PM 34.0786 -118.9203 289° West 240 276 9,000  Level Los Angeles Center
Tue 07:31:59 PM 34.1214 -118.9836 309° West 244 281 9,000 242 Level Los Angeles Center
Tue 07:33:01 PM 34.1644 -119.0467 310° West 245 282 9,500 1,220 Climbing Los Angeles Center
Tue 07:34:02 PM 34.2011 -119.1017 309° West 211 243 11,500 1,805 Climbing Los Angeles Center
Tue 07:35:04 PM 34.2347 -119.1542 308° West 199 229 13,200 1,645 Climbing Los Angeles Center
Tue 07:36:06 PM 34.2725 -119.2164 306° West 195 224 14,900 1,355 Climbing Los Angeles Center
Tue 07:37:08 PM 34.3044 -119.2703 306° West 197 227 16,000 532 Climbing Los Angeles Center
Tue 07:38:10 PM 34.3425 -119.3294 308° West 222 255 16,000  Level Los Angeles Center
Tue 07:39:12 PM 34.3803 -119.3889 308° West 223 257 16,000  Level Los Angeles Center
Tue 07:40:14 PM 34.4194 -119.4489 308° West 227 261 16,000  Level Los Angeles Center
Tue 07:41:15 PM 34.4600 -119.5067 310° West 227 261 16,000  Level Los Angeles Center
Tue 07:42:17 PM 34.5083 -119.5786 309° West 229 264 16,000  Level Los Angeles Center
Tue 07:43:19 PM 34.5469 -119.6386 308° West 226 260 16,000  Level Los Angeles Center
Tue 07:44:21 PM 34.5844 -119.7000 307° West 227 261 16,000  Level Los Angeles Center
Tue 07:45:23 PM 34.6233 -119.7572 310° West 229 264 16,000  Level Los Angeles Center
Tue 07:46:25 PM 34.6622 -119.8194 307° West 231 266 16,000  Level Los Angeles Center
Tue 07:47:27 PM 34.7092 -119.8928 308° West 229 264 16,000  Level Los Angeles Center
Tue 07:48:29 PM 34.7464 -119.9561 306° West 231 266 16,000 -275 Level Los Angeles Center
Tue 07:49:16 PM 34.7758 -120.0072 305° West 231 266 15,500 -1,000 Descending Los Angeles Center
Tue 07:50:17 PM 34.8186 -120.0744 308° West 241 277 14,200 -1,184 Descending Los Angeles Center
Tue 07:50:32 PM 34.8261 -120.0850 311° West 245 282 14,000 -1,200 Descending Los Angeles Center
Tue 07:51:17 PM 34.8608 -120.1394 308° West 250 288 13,000 -1,452 Descending Los Angeles Center
Tue 07:51:34 PM 34.8758 -120.1583 314° West 250 288 12,500 -1,279 Descending Los Angeles Center
Tue 07:52:18 PM 34.9078 -120.2056 310° West 246 283 11,700 -1,065 Descending Los Angeles Center
Tue 07:52:36 PM 34.9181 -120.2214 308° West 242 278 11,400 -1,082 Descending Los Angeles Center
Tue 07:53:19 PM 34.9447 -120.2672 305° West 235 270 10,600 -1,161 Descending Los Angeles Center
Tue 07:53:38 PM 34.9561 -120.2844 309° West 235 270 10,200 -1,200 Descending Los Angeles Center
Tue 07:54:19 PM 34.9844 -120.3306 307° West 228 262 9,400 -1,065 Descending Los Angeles Center
Tue 07:54:40 PM 34.9944 -120.3447 311° West 229 264 9,100 -1,082 Descending Los Angeles Center
Tue 07:55:20 PM 35.0208 -120.3897 306° West 223 257 8,300 -1,161 Descending Los Angeles Center
Tue 07:55:42 PM 35.0294 -120.4053 304° West 223 257 7,900 -1,300 Descending Los Angeles Center
Tue 07:56:20 PM 35.0608 -120.4450 314° West 216 249 7,000 -1,355 Descending Los Angeles Center
Tue 07:56:44 PM 35.0708 -120.4553 320° Northwest 214 246 6,500 -2,066 Descending Los Angeles Center
Tue 07:57:21 PM 35.1156 -120.4881 329° Northwest 223 257 4,900 -2,226 Descending Los Angeles Center
Tue 07:57:46 PM 35.1342 -120.5025 328° Northwest 221 254 4,200 -1,377 Descending Los Angeles Center
Tue 07:58:22 PM 35.1650 -120.5275 326° Northwest 221 254 3,500 -1,548 Descending Los Angeles Center
Tue 07:58:48 PM 35.1808 -120.5436 320° Northwest 210 242 2,600 -1,900 Descending Los Angeles Center
Tue 07:59:22 PM 35.1986 -120.5747 305° West 177 204 1,600 -968 Descending Los Angeles Center
Tue 07:59:50 PM 35.2072 -120.5869 311° West 190 219 1,600  Level Los Angeles Center

Login

Don't have an account? Register now (free) for customized features, flight alerts, and more!